(°C)
(°C)
-2°
-3°
-2°
-2°
-2°
-2°
-3°
VSV
VSV
VSV
VSV
VSV
VSV
VSV
(km/h)
6-14
6-14
6-16
5-18
5-15
5-14
5-12
(mm)
0
0
0
0
0
0
0
(%)
0
0
0
0
0
0
0

Sluneční výška

/ -12°
sun-icon
UV 1
05:53
18:27
Úplněk (187°)
18:57
05:45

METAR pro 64.6°S 40.72°V (ULAA)

Čas Podmínky Teplota/
Rosný bod
Vítr Viditelnost Počasí Oblaky Tlak Změna Nezpracované
VFR 1°C / 0°C 80º 4kt >10km - Clouds and Visibility OK 1028 No Significant change ULAA 211700Z 08002MPS CAVOK 01/M00 Q1028 R08/CLRD70 NOSIG RMK QFE770/1027
VFR 2°C / 0°C 80º 4kt >10km - Clouds and Visibility OK 1028 No Significant change ULAA 211630Z 08002MPS CAVOK 02/00 Q1028 R08/CLRD70 NOSIG RMK QFE770/1027
VFR 3°C / 1°C 80º 4kt >10km - Clouds and Visibility OK 1028 No Significant change ULAA 211600Z 08002MPS CAVOK 03/01 Q1028 R08/CLRD70 NOSIG RMK QFE770/1027
VFR 4°C / 1°C 80º 4kt >10km - Clouds and Visibility OK 1028 No Significant change ULAA 211530Z 08002MPS CAVOK 04/01 Q1028 R08/CLRD70 NOSIG RMK QFE770/1027
VFR 6°C / 1°C 80º variable 040º to 100º 4kt >10km - Clouds and Visibility OK 1028 No Significant change ULAA 211500Z 08002MPS 040V100 CAVOK 06/01 Q1028 R08/CLRD70 NOSIG RMK QFE770/1027
VFR 7°C / 1°C 90º variable 060º to 150º 4kt >10km - Clouds and Visibility OK 1028 No Significant change ULAA 211430Z 09002MPS 060V150 CAVOK 07/01 Q1028 R08/CLRD70 NOSIG RMK QFE770/1027
VFR 8°C / 1°C 100º variable 060º to 130º 6kt >10km - Clouds and Visibility OK 1028 No Significant change ULAA 211400Z 10003MPS 060V130 CAVOK 08/01 Q1028 R08/CLRD70 NOSIG RMK QFE770/1027
VFR 9°C / 1°C 80º variable 030º to 130º 4kt >10km - Clouds and Visibility OK 1029 No Significant change ULAA 211330Z 08002MPS 030V130 CAVOK 09/01 Q1029 R08/CLRD70 NOSIG RMK QFE771/1028
VFR 9°C / 1°C 100º variable 050º to 160º 6kt >10km - Clouds and Visibility OK 1029 No Significant change ULAA 211300Z 10003MPS 050V160 CAVOK 09/01 Q1029 R08/CLRD70 NOSIG RMK QFE771/1028
VFR 9°C / 1°C 110º variable 050º to 150º 4kt >10km - Few Clouds 4000ft 1029 No Significant change ULAA 211230Z 11002MPS 050V150 9999 FEW040 09/01 Q1029 R08/CLRD70 NOSIG RMK QFE771/1028
VFR 10°C / 1°C 80º variable 010º to 140º 4kt >10km - Few Clouds 4000ft 1029 No Significant change ULAA 211200Z 08002MPS 010V140 9999 FEW040 10/01 Q1029 R08/CLRD70 NOSIG RMK QFE771/1028
VFR 10°C / 0°C 70º variable 030º to 120º 4kt >10km - Few Clouds 4000ft 1030 No Significant change ULAA 211130Z 07002MPS 030V120 9999 FEW040 10/00 Q1030 R08/CLRD70 NOSIG RMK QFE771/1029
VFR 9°C / 1°C 60º variable 360º to 100º 4kt >10km - Few Clouds 4000ft 1030 No Significant change ULAA 211100Z 06002MPS 360V100 9999 FEW040 09/01 Q1030 R08/CLRD70 NOSIG RMK QFE772/1029
VFR 8°C / 1°C 90º 4kt >10km - Few Clouds 3300ft 1030 No Significant change ULAA 211030Z 09002MPS 9999 FEW033 08/01 Q1030 R08/CLRD70 NOSIG RMK QFE772/1029
VFR 8°C / 1°C 80º variable 010º to 140º 4kt >10km - Scattered Clouds 3300ft 1031 No Significant change ULAA 211000Z 08002MPS 010V140 9999 SCT033 08/01 Q1031 R08/CLRD70 NOSIG RMK QFE772/1029
MVFR 8°C / 0°C 120º variable 050º to 170º 4kt >10km - Broken Clouds 2600ft 1031 No Significant change ULAA 210930Z 12002MPS 050V170 9999 BKN026 08/00 Q1031 R08/CLRD70 NOSIG RMK QFE772/1030
MVFR 7°C / 1°C 100º variable 050º to 150º 4kt >10km - Broken Clouds 2600ft 1031 No Significant change ULAA 210900Z 10002MPS 050V150 9999 BKN026 07/01 Q1031 R08/CLRD70 NOSIG RMK QFE772/1030
MVFR 7°C / 0°C 90º variable 010º to 180º 4kt >10km - Broken Clouds 2300ft 1031 No Significant change ULAA 210830Z 09002MPS 010V180 9999 BKN023 07/00 Q1031 R08/CLRD70 NOSIG RMK QFE772/1030
MVFR 6°C / 0°C 100º variable 050º to 150º 6kt >10km - Broken Clouds 2100ft 1032 No Significant change ULAA 210800Z 10003MPS 050V150 9999 BKN021 06/00 Q1032 R08/CLRD70 NOSIG RMK QFE773/1030
MVFR 5°C / 0°C 130º variable 080º to 180º 6kt >10km - Broken Clouds 2200ft 1032 No Significant change ULAA 210730Z 13003MPS 080V180 9999 BKN022 05/M00 Q1032 R08/CLRD70 NOSIG RMK QFE773/1030
MVFR 5°C / 0°C 130º variable 060º to 210º 4kt >10km - Overcast 2000ft 1032 No Significant change ULAA 210700Z 13002MPS 060V210 9999 OVC020 05/M00 Q1032 R08/CLRD70 NOSIG RMK QFE773/1031
MVFR 4°C / 0°C 130º variable 070º to 180º 4kt >10km - Overcast 1900ft 1032 No Significant change ULAA 210630Z 13002MPS 070V180 9999 OVC019 04/M00 Q1032 R08/CLRD70 NOSIG RMK QFE773/1031
MVFR 4°C / 0°C 90º variable 040º to 150º 4kt >10km - Overcast 1900ft 1032 No Significant change ULAA 210600Z 09002MPS 040V150 9999 OVC019 04/M00 Q1032 R08/CLRD70 NOSIG RMK QFE773/1031
MVFR 4°C / 0°C 80º variable 040º to 120º 4kt >10km - Overcast 1900ft 1032 No Significant change ULAA 210530Z 08002MPS 040V120 9999 OVC019 04/M00 Q1032 R08/CLRD70 NOSIG RMK QFE773/1031

VFR

1°C / 0°C

[Víc]
Vítr 80º 4kt
Viditelnost >10km
Počasí -
Oblaky Clouds and Visibility OK
Tlak 1028
Změna No Significant change
Nezpracované ULAA 211700Z 08002MPS CAVOK 01/M00 Q1028 R08/CLRD70 NOSIG RMK QFE770/1027

VFR

2°C / 0°C

[Víc]
Vítr 80º 4kt
Viditelnost >10km
Počasí -
Oblaky Clouds and Visibility OK
Tlak 1028
Změna No Significant change
Nezpracované ULAA 211630Z 08002MPS CAVOK 02/00 Q1028 R08/CLRD70 NOSIG RMK QFE770/1027

VFR

3°C / 1°C

[Víc]
Vítr 80º 4kt
Viditelnost >10km
Počasí -
Oblaky Clouds and Visibility OK
Tlak 1028
Změna No Significant change
Nezpracované ULAA 211600Z 08002MPS CAVOK 03/01 Q1028 R08/CLRD70 NOSIG RMK QFE770/1027

VFR

4°C / 1°C

[Víc]
Vítr 80º 4kt
Viditelnost >10km
Počasí -
Oblaky Clouds and Visibility OK
Tlak 1028
Změna No Significant change
Nezpracované ULAA 211530Z 08002MPS CAVOK 04/01 Q1028 R08/CLRD70 NOSIG RMK QFE770/1027

VFR

6°C / 1°C

[Víc]
Vítr 80º variable 040º to 100º 4kt
Viditelnost >10km
Počasí -
Oblaky Clouds and Visibility OK
Tlak 1028
Změna No Significant change
Nezpracované ULAA 211500Z 08002MPS 040V100 CAVOK 06/01 Q1028 R08/CLRD70 NOSIG RMK QFE770/1027

VFR

7°C / 1°C

[Víc]
Vítr 90º variable 060º to 150º 4kt
Viditelnost >10km
Počasí -
Oblaky Clouds and Visibility OK
Tlak 1028
Změna No Significant change
Nezpracované ULAA 211430Z 09002MPS 060V150 CAVOK 07/01 Q1028 R08/CLRD70 NOSIG RMK QFE770/1027

VFR

8°C / 1°C

[Víc]
Vítr 100º variable 060º to 130º 6kt
Viditelnost >10km
Počasí -
Oblaky Clouds and Visibility OK
Tlak 1028
Změna No Significant change
Nezpracované ULAA 211400Z 10003MPS 060V130 CAVOK 08/01 Q1028 R08/CLRD70 NOSIG RMK QFE770/1027

VFR

9°C / 1°C

[Víc]
Vítr 80º variable 030º to 130º 4kt
Viditelnost >10km
Počasí -
Oblaky Clouds and Visibility OK
Tlak 1029
Změna No Significant change
Nezpracované ULAA 211330Z 08002MPS 030V130 CAVOK 09/01 Q1029 R08/CLRD70 NOSIG RMK QFE771/1028

VFR

9°C / 1°C

[Víc]
Vítr 100º variable 050º to 160º 6kt
Viditelnost >10km
Počasí -
Oblaky Clouds and Visibility OK
Tlak 1029
Změna No Significant change
Nezpracované ULAA 211300Z 10003MPS 050V160 CAVOK 09/01 Q1029 R08/CLRD70 NOSIG RMK QFE771/1028

VFR

9°C / 1°C

[Víc]
Vítr 110º variable 050º to 150º 4kt
Viditelnost >10km
Počasí -
Oblaky Few Clouds 4000ft
Tlak 1029
Změna No Significant change
Nezpracované ULAA 211230Z 11002MPS 050V150 9999 FEW040 09/01 Q1029 R08/CLRD70 NOSIG RMK QFE771/1028

VFR

10°C / 1°C

[Víc]
Vítr 80º variable 010º to 140º 4kt
Viditelnost >10km
Počasí -
Oblaky Few Clouds 4000ft
Tlak 1029
Změna No Significant change
Nezpracované ULAA 211200Z 08002MPS 010V140 9999 FEW040 10/01 Q1029 R08/CLRD70 NOSIG RMK QFE771/1028

VFR

10°C / 0°C

[Víc]
Vítr 70º variable 030º to 120º 4kt
Viditelnost >10km
Počasí -
Oblaky Few Clouds 4000ft
Tlak 1030
Změna No Significant change
Nezpracované ULAA 211130Z 07002MPS 030V120 9999 FEW040 10/00 Q1030 R08/CLRD70 NOSIG RMK QFE771/1029

VFR

9°C / 1°C

[Víc]
Vítr 60º variable 360º to 100º 4kt
Viditelnost >10km
Počasí -
Oblaky Few Clouds 4000ft
Tlak 1030
Změna No Significant change
Nezpracované ULAA 211100Z 06002MPS 360V100 9999 FEW040 09/01 Q1030 R08/CLRD70 NOSIG RMK QFE772/1029

VFR

8°C / 1°C

[Víc]
Vítr 90º 4kt
Viditelnost >10km
Počasí -
Oblaky Few Clouds 3300ft
Tlak 1030
Změna No Significant change
Nezpracované ULAA 211030Z 09002MPS 9999 FEW033 08/01 Q1030 R08/CLRD70 NOSIG RMK QFE772/1029

VFR

8°C / 1°C

[Víc]
Vítr 80º variable 010º to 140º 4kt
Viditelnost >10km
Počasí -
Oblaky Scattered Clouds 3300ft
Tlak 1031
Změna No Significant change
Nezpracované ULAA 211000Z 08002MPS 010V140 9999 SCT033 08/01 Q1031 R08/CLRD70 NOSIG RMK QFE772/1029

MVFR

8°C / 0°C

[Víc]
Vítr 120º variable 050º to 170º 4kt
Viditelnost >10km
Počasí -
Oblaky Broken Clouds 2600ft
Tlak 1031
Změna No Significant change
Nezpracované ULAA 210930Z 12002MPS 050V170 9999 BKN026 08/00 Q1031 R08/CLRD70 NOSIG RMK QFE772/1030

MVFR

7°C / 1°C

[Víc]
Vítr 100º variable 050º to 150º 4kt
Viditelnost >10km
Počasí -
Oblaky Broken Clouds 2600ft
Tlak 1031
Změna No Significant change
Nezpracované ULAA 210900Z 10002MPS 050V150 9999 BKN026 07/01 Q1031 R08/CLRD70 NOSIG RMK QFE772/1030

MVFR

7°C / 0°C

[Víc]
Vítr 90º variable 010º to 180º 4kt
Viditelnost >10km
Počasí -
Oblaky Broken Clouds 2300ft
Tlak 1031
Změna No Significant change
Nezpracované ULAA 210830Z 09002MPS 010V180 9999 BKN023 07/00 Q1031 R08/CLRD70 NOSIG RMK QFE772/1030

MVFR

6°C / 0°C

[Víc]
Vítr 100º variable 050º to 150º 6kt
Viditelnost >10km
Počasí -
Oblaky Broken Clouds 2100ft
Tlak 1032
Změna No Significant change
Nezpracované ULAA 210800Z 10003MPS 050V150 9999 BKN021 06/00 Q1032 R08/CLRD70 NOSIG RMK QFE773/1030

MVFR

5°C / 0°C

[Víc]
Vítr 130º variable 080º to 180º 6kt
Viditelnost >10km
Počasí -
Oblaky Broken Clouds 2200ft
Tlak 1032
Změna No Significant change
Nezpracované ULAA 210730Z 13003MPS 080V180 9999 BKN022 05/M00 Q1032 R08/CLRD70 NOSIG RMK QFE773/1030

MVFR

5°C / 0°C

[Víc]
Vítr 130º variable 060º to 210º 4kt
Viditelnost >10km
Počasí -
Oblaky Overcast 2000ft
Tlak 1032
Změna No Significant change
Nezpracované ULAA 210700Z 13002MPS 060V210 9999 OVC020 05/M00 Q1032 R08/CLRD70 NOSIG RMK QFE773/1031

MVFR

4°C / 0°C

[Víc]
Vítr 130º variable 070º to 180º 4kt
Viditelnost >10km
Počasí -
Oblaky Overcast 1900ft
Tlak 1032
Změna No Significant change
Nezpracované ULAA 210630Z 13002MPS 070V180 9999 OVC019 04/M00 Q1032 R08/CLRD70 NOSIG RMK QFE773/1031

MVFR

4°C / 0°C

[Víc]
Vítr 90º variable 040º to 150º 4kt
Viditelnost >10km
Počasí -
Oblaky Overcast 1900ft
Tlak 1032
Změna No Significant change
Nezpracované ULAA 210600Z 09002MPS 040V150 9999 OVC019 04/M00 Q1032 R08/CLRD70 NOSIG RMK QFE773/1031

MVFR

4°C / 0°C

[Víc]
Vítr 80º variable 040º to 120º 4kt
Viditelnost >10km
Počasí -
Oblaky Overcast 1900ft
Tlak 1032
Změna No Significant change
Nezpracované ULAA 210530Z 08002MPS 040V120 9999 OVC019 04/M00 Q1032 R08/CLRD70 NOSIG RMK QFE773/1031

TAF pro 64.6°S 40.72°V (ULAA)

From till


From till Wind 90º 6kt. Visibility 10km or more. Broken Clouds 1600ft.
Temporarly from till Wind 120º 6kt. Gust 16kt. Visibility 6000m. Light Showers Rain . Broken Clouds 1600ft.
Temporarly from till Wind variable 2kt. Visibility 402.335m. Fog . Broken Clouds 200ft.

Nezpracované: TAF ULAA 211400Z 2115/2215 09003MPS 9999 BKN016 TEMPO 2115/2118 12003G08MPS 6000 -SHRA BKN016CB TEMPO 2118/2203 VRB01MPS 0400 FG BKN002

Aktuální snímky ze satelitu a srážky pro 64.6°S 40.72°V

Značka polohy je umístěna na 64.6°S 40.72°V. [Víc]

Satelitní snímek v reálném čase kombinuje viditelné světlo během dne s infračerveným zářením během noci. V noci není obraz tmavý, protože infračervené záření dokáže detekovat teplotní rozdíly. Nízká oblačnost a mlha se bohužel těžko odlišují od pozemních teplot, a proto mohou být během noci téměř neviditelné. Satelitní snímky z Meteosatu pro Evropu jsou aktualizovány v reálném čase každých 5 minut. Snímky z GOES-16/GOES-17 (Severní a Jižní Amerika) a Himawari (Asie) jsou aktualizovány) každých 10 minut.

Copyright 2021 EUMETSAT / meteoblue. / Copyright 2021 meteoblue

Radar a krátkodobá předpověď srážek pro 64.6°S 40.72°V

Mrholení
Slabé
Mírná
Silné
Velmi silné
Kroupy

Značka lokality je umístněna na 64.6°S 40.72°V. Tato animace ukazuje srážky zaznamenané radarem za poslední hodinu a také 1h předpověď. Mrholení nebo slabé sněžení může být pro radar neviditelné. Intenzita srážek je barevně označena od světle modré po oranžovou.